Time;durP1;ratioP1;P1;durP2;ratioP2;P2;SDS_P1;SDS_P2;PMS_P1;PMS_P2;Temp;Humidity;BMP_temperature;BMP_pressure;BME280_temperature;BME280_humidity;BME280_pressure;Samples;Min_cycle;Max_cycle;Signal;HPM_P1;HPM_P2
2022/11/05 00:10:26;;;;;;;3.40;2.03;;;12.30;94.20;;;12.62;62.54;98373.50;4978015;28;115077;-77
2022/11/05 00:18:24;;;;;;;3.20;2.03;;;12.10;93.80;;;12.51;62.41;98381.41;4977170;28;125024;-77
2022/11/05 00:20:50;;;;;;;2.20;1.70;;;12.10;93.80;;;12.51;62.36;98379.44;4971965;28;114401;-79
2022/11/05 00:26:07;;;;;;;2.60;2.30;;;12.10;93.90;;;12.54;62.49;98392.63;4977386;28;124819;-77
2022/11/05 00:28:34;;;;;;;2.20;1.93;;;12.20;94.00;;;12.55;62.65;98390.69;4974537;28;124064;-77
2022/11/05 00:31:10;;;;;;;2.30;1.90;;;12.10;94.00;;;12.56;62.87;98400.59;4972610;28;114261;-77
2022/11/05 00:33:41;;;;;;;4.00;2.20;;;12.10;94.10;;;12.57;62.90;98407.75;4974918;28;113800;-77
2022/11/05 00:36:10;;;;;;;4.50;2.60;;;12.10;94.20;;;12.58;62.80;98403.84;4976382;28;123986;-77
2022/11/05 00:38:37;;;;;;;3.70;2.10;;;12.10;94.20;;;12.60;62.83;98407.91;4983597;28;123709;-77
2022/11/05 00:41:04;;;;;;;2.43;1.90;;;12.10;94.20;;;12.56;62.50;98404.19;4973559;28;115593;-77
2022/11/05 00:46:15;;;;;;;3.30;1.93;;;12.10;94.10;;;12.51;62.86;98411.88;4976216;28;124941;-78
2022/11/05 00:51:27;;;;;;;2.13;1.93;;;12.10;94.00;;;12.48;62.69;98415.31;4976784;28;115552;-77
2022/11/05 00:53:53;;;;;;;2.03;1.80;;;12.50;94.10;;;12.45;62.42;98427.09;4974577;28;114094;-77
2022/11/05 00:56:21;;;;;;;2.17;1.80;;;12.10;93.90;;;12.41;62.61;98420.56;4971540;28;124285;-77
2022/11/05 00:58:47;;;;;;;3.90;2.50;;;12.00;93.90;;;12.37;62.63;98420.44;4971002;28;123788;-77
2022/11/05 01:01:14;;;;;;;3.20;1.70;;;12.00;93.90;;;12.30;62.45;98429.25;4969348;28;114281;-76
2022/11/05 01:03:41;;;;;;;3.60;2.53;;;11.90;93.80;;;12.28;62.45;98433.53;4966586;28;113767;-77
2022/11/05 01:06:11;;;;;;;2.30;1.80;;;11.90;93.80;;;12.28;62.79;98434.34;4973991;28;124023;-78
2022/11/05 01:08:40;;;;;;;2.60;1.80;;;11.90;93.90;;;12.27;62.91;98443.78;4971318;28;123760;-77
2022/11/05 01:11:35;;;;;;;3.03;2.30;;;11.90;93.90;;;12.28;62.65;98439.06;4972194;28;114586;-77
2022/11/05 01:14:09;;;;;;;2.87;1.90;;;12.00;94.00;;;12.28;62.68;98439.06;4974394;28;113779;-77
2022/11/05 01:16:37;;;;;;;2.33;1.93;;;11.90;94.00;;;12.25;63.00;98440.53;4970364;28;123485;-78
2022/11/05 01:19:07;;;;;;;2.10;1.60;;;11.90;94.00;;;12.27;62.65;98454.03;4971626;28;123803;-77
2022/11/05 01:21:36;;;;;;;1.57;1.47;;;11.90;94.10;;;12.27;63.02;98443.78;4971819;28;114288;-76
2022/11/05 01:24:23;;;;;;;1.83;1.60;;;11.90;94.10;;;12.27;62.94;98446.53;4971583;28;114262;-77
2022/11/05 01:26:49;;;;;;;1.70;1.40;;;11.90;94.10;;;12.25;62.75;98457.16;4974447;28;124081;-78
2022/11/05 01:29:16;;;;;;;1.93;1.60;;;11.90;94.10;;;12.23;62.59;98453.91;4976208;28;123804;-77
2022/11/05 01:31:42;;;;;;;2.20;1.50;;;11.80;94.00;;;12.23;62.64;98453.09;4970303;28;115106;-77
2022/11/05 01:34:09;;;;;;;2.63;1.67;;;11.90;94.10;;;12.22;62.91;98457.00;4991676;28;114036;-77
2022/11/05 01:36:35;;;;;;;2.00;1.40;;;11.80;94.00;;;12.21;62.98;98453.41;4971708;28;123943;-77
2022/11/05 01:39:02;;;;;;;5.00;1.77;;;11.80;94.00;;;12.22;62.88;98459.75;4974425;28;123899;-77
2022/11/05 01:41:28;;;;;;;1.60;1.50;;;11.80;94.10;;;12.23;62.96;98458.63;4970110;28;114345;-76
2022/11/05 01:44:02;;;;;;;2.60;1.70;;;11.80;94.10;;;12.26;63.21;98460.75;4967464;28;113949;-77
2022/11/05 01:46:40;;;;;;;2.13;1.50;;;11.80;94.20;;;12.29;62.95;98460.88;4969583;28;123212;-77
2022/11/05 01:49:21;;;;;;;3.30;2.00;;;12.00;94.30;;;12.33;63.22;98461.84;4970974;28;122897;-77
2022/11/05 01:51:48;;;;;;;1.60;1.47;;;11.90;94.30;;;12.34;63.23;98460.69;4968774;28;114118;-77
2022/11/05 01:54:18;;;;;;;1.90;1.70;;;11.90;94.40;;;12.37;63.36;98459.22;4969121;28;114172;-77
2022/11/05 01:56:57;;;;;;;1.40;1.30;;;12.00;94.50;;;12.40;63.21;98460.50;4967812;28;124011;-76
2022/11/05 01:59:42;;;;;;;1.50;1.30;;;11.90;94.50;;;12.41;63.21;98464.91;4968469;28;123650;-77
2022/11/05 02:02:08;;;;;;;2.07;1.40;;;11.90;94.50;;;12.40;63.12;98464.09;4954945;28;114071;-77
2022/11/05 02:04:45;;;;;;;3.80;2.00;;;11.90;94.50;;;12.44;63.27;98475.31;4986541;28;112915;-77
2022/11/05 02:07:12;;;;;;;2.67;1.50;;;12.10;94.60;;;12.45;63.38;98469.44;4975367;28;123885;-77
2022/11/05 02:09:54;;;;;;;2.27;1.83;;;12.00;94.50;;;12.49;63.34;98475.13;4970572;28;123261;-76
2022/11/05 02:12:22;;;;;;;1.60;1.50;;;12.00;94.50;;;12.48;63.21;98470.75;4971661;28;114714;-77
2022/11/05 02:14:49;;;;;;;1.90;1.50;;;12.00;94.50;;;12.48;63.21;98477.09;4972092;28;115314;-76
2022/11/05 02:17:18;;;;;;;1.40;1.30;;;12.50;94.60;;;12.49;62.93;98475.13;4968715;28;124058;-76
2022/11/05 02:20:06;;;;;;;1.90;1.40;;;12.60;94.70;;;12.50;63.10;98479.53;4968488;28;124101;-76
2022/11/05 02:23:10;;;;;;;1.47;1.23;;;12.00;94.40;;;12.49;62.92;98480.66;4968573;28;115285;-76
2022/11/05 02:26:13;;;;;;;3.40;1.30;;;12.00;94.40;;;12.47;62.85;98486.56;4970814;28;115212;-76
2022/11/05 02:29:25;;;;;;;2.07;1.57;;;12.00;94.40;;;12.41;62.92;98475.97;4972073;28;124596;-76
2022/11/05 02:32:04;;;;;;;1.83;1.20;;;12.00;94.30;;;12.36;62.91;98483.34;4969043;28;123596;-76
2022/11/05 02:35:16;;;;;;;1.30;1.20;;;12.00;94.20;;;12.32;62.81;98487.09;4968476;28;114324;-76
2022/11/05 02:37:53;;;;;;;3.43;1.23;;;12.00;94.20;;;12.32;63.06;98481.56;4993863;28;113517;-76
2022/11/05 02:40:49;;;;;;;2.90;1.50;;;12.10;94.30;;;12.34;63.23;98485.63;4967221;28;124144;-76
2022/11/05 02:43:49;;;;;;;1.27;1.17;;;11.90;94.20;;;12.37;63.26;98487.72;4971591;28;124396;-76
2022/11/05 02:46:55;;;;;;;1.40;1.30;;;12.00;94.30;;;12.36;63.10;98488.88;4969762;28;114240;-76
2022/11/05 02:49:58;;;;;;;3.20;1.47;;;11.90;94.30;;;12.36;62.97;98479.78;4970783;28;113786;-76
2022/11/05 02:52:36;;;;;;;1.77;1.23;;;12.00;94.30;;;12.38;63.25;98486.59;4968222;28;124125;-77
2022/11/05 02:55:24;;;;;;;1.50;1.30;;;12.00;94.30;;;12.40;62.87;98491.00;4969700;28;124736;-76
2022/11/05 02:57:51;;;;;;;1.40;1.23;;;12.00;94.60;;;12.42;63.05;98495.06;4967988;28;114100;-76
2022/11/05 03:00:48;;;;;;;2.30;1.20;;;12.00;94.40;;;12.47;62.88;98491.28;4969498;28;114382;-77
2022/11/05 03:03:28;;;;;;;2.13;1.30;;;12.00;94.40;;;12.48;62.94;98493.72;4976133;28;123622;-76
2022/11/05 03:06:22;;;;;;;1.63;1.53;;;12.00;94.40;;;12.50;63.02;98485.09;4971053;28;123388;-78
2022/11/05 03:09:25;;;;;;;1.87;1.23;;;12.00;94.40;;;12.49;62.83;98483.44;4959956;28;114277;-77
2022/11/05 03:12:10;;;;;;;1.93;1.30;;;12.00;94.40;;;12.51;63.21;98492.25;4994352;28;113383;-77
2022/11/05 03:14:54;;;;;;;3.93;1.40;;;12.00;94.40;;;12.52;63.00;98493.84;4968210;28;123953;-77
2022/11/05 03:18:02;;;;;;;2.33;1.43;;;12.00;94.50;;;12.51;63.00;98498.59;4968685;28;123589;-77
2022/11/05 03:20:36;;;;;;;1.57;1.20;;;12.10;94.50;;;12.52;63.01;98505.78;4970805;28;115746;-77
2022/11/05 03:23:38;;;;;;;6.70;1.70;;;12.10;94.50;;;12.50;62.97;98507.25;4967985;28;114915;-76
2022/11/05 03:26:16;;;;;;;1.80;1.17;;;12.10;94.50;;;12.48;63.12;98517.84;4966698;28;124711;-76
2022/11/05 03:28:50;;;;;;;2.40;1.50;;;12.00;94.50;;;12.48;63.46;98513.13;4966768;28;123759;-77
2022/11/05 03:31:20;;;;;;;1.20;1.10;;;12.10;94.50;;;12.48;63.42;98515.06;4967480;28;114772;-76
2022/11/05 03:33:50;;;;;;;1.50;1.40;;;12.10;94.60;;;12.46;63.42;98517.34;4966951;28;113983;-78
2022/11/05 03:36:27;;;;;;;1.50;1.40;;;12.00;94.50;;;12.46;63.58;98520.13;4966744;28;123951;-77
2022/11/05 03:38:56;;;;;;;2.53;1.50;;;12.10;94.60;;;12.47;63.38;98519.00;4953264;28;123333;-76
2022/11/05 03:41:24;;;;;;;1.70;1.30;;;12.00;94.60;;;12.47;63.53;98521.78;4967144;28;115293;-77
2022/11/05 03:43:56;;;;;;;1.30;1.20;;;12.00;94.60;;;12.49;63.66;98523.06;4970094;28;113995;-77
2022/11/05 03:46:36;;;;;;;3.07;1.50;;;12.00;94.60;;;12.51;63.65;98526.31;4968707;28;124528;-77
2022/11/05 03:49:05;;;;;;;1.70;1.20;;;12.10;94.80;;;12.51;63.51;98529.06;4966925;28;122794;-77
2022/11/05 03:51:40;;;;;;;1.70;1.30;;;12.10;94.80;;;12.53;63.99;98534.28;4967135;28;115094;-77
2022/11/05 03:54:07;;;;;;;1.80;1.70;;;12.20;94.90;;;12.52;63.75;98532.66;4966571;28;113713;-77
2022/11/05 03:57:00;;;;;;;1.53;1.20;;;12.10;94.80;;;12.52;63.53;98543.72;4968769;28;124014;-77
2022/11/05 03:59:29;;;;;;;1.90;1.40;;;12.10;94.80;;;12.46;63.75;98547.84;4967472;28;123881;-77
2022/11/05 04:02:34;;;;;;;3.10;1.70;;;12.00;94.80;;;12.41;63.76;98553.56;4970333;28;114293;-78
2022/11/05 04:05:04;;;;;;;1.90;1.43;;;12.00;94.80;;;12.37;64.12;98551.44;4964792;28;114184;-78
2022/11/05 04:17:07;;;;;;;2.10;1.37;;;11.90;95.10;;;12.12;64.96;98566.19;4971772;28;115377;-77
2022/11/05 04:25:18;;;;;;;1.43;1.30;;;11.80;95.40;;;12.19;65.40;98574.00;4960875;28;114689;-76
2022/11/05 04:27:45;;;;;;;2.13;1.80;;;11.80;95.50;;;12.20;65.35;98576.44;4967665;28;113545;-77
2022/11/05 04:30:17;;;;;;;1.40;1.20;;;11.80;95.60;;;12.21;65.91;98580.81;4969319;28;123237;-77
2022/11/05 04:33:23;;;;;;;1.73;1.57;;;11.80;95.60;;;12.21;65.32;98589.13;4969554;28;123957;-77
2022/11/05 04:35:51;;;;;;;1.83;1.40;;;11.80;95.70;;;12.22;65.86;98590.75;4972467;28;114031;-76
2022/11/05 04:38:19;;;;;;;1.80;1.60;;;11.80;95.80;;;12.23;65.83;98597.94;4970276;28;113976;-77
2022/11/05 04:40:47;;;;;;;4.13;1.57;;;11.80;95.80;;;12.25;65.89;98590.13;4970990;28;124650;-80
2022/11/05 04:43:16;;;;;;;1.93;1.50;;;11.90;95.90;;;12.27;65.83;98589.78;4978070;28;124752;-78
2022/11/05 04:45:43;;;;;;;1.73;1.60;;;11.90;96.00;;;12.25;66.12;98594.81;4974753;28;113895;-77
2022/11/05 04:48:12;;;;;;;3.67;1.80;;;11.80;95.90;;;12.24;65.99;98594.00;4972504;28;113205;-77
2022/11/05 04:50:38;;;;;;;1.80;1.57;;;11.80;96.00;;;12.26;66.06;98596.47;4970104;28;123915;-77
2022/11/05 04:53:05;;;;;;;4.60;1.90;;;11.80;96.00;;;12.26;66.45;98602.81;4971626;28;124177;-76
2022/11/05 04:55:31;;;;;;;2.13;1.90;;;12.70;96.50;;;12.27;66.37;98598.88;4971893;28;114394;-77
2022/11/05 04:57:58;;;;;;;2.00;1.57;;;11.80;96.10;;;12.28;66.37;98602.50;4976202;28;113796;-78
2022/11/05 05:00:24;;;;;;;1.43;1.33;;;11.80;96.20;;;12.29;66.10;98601.34;4978321;28;124348;-78
2022/11/05 05:02:51;;;;;;;1.60;1.50;;;11.90;96.20;;;12.29;66.62;98607.69;4978500;28;124089;-77
2022/11/05 05:05:17;;;;;;;2.27;1.63;;;11.90;96.20;;;12.31;66.59;98613.72;4967701;28;115189;-76
2022/11/05 05:07:44;;;;;;;5.87;1.53;;;12.00;96.30;;;12.33;66.37;98605.91;4967720;28;114853;-77
2022/11/05 05:10:11;;;;;;;2.20;1.70;;;11.90;96.30;;;12.35;66.34;98613.88;4970580;28;124468;-76
2022/11/05 05:12:37;;;;;;;2.27;1.70;;;11.90;96.30;;;12.38;66.36;98616.81;4965531;28;123603;-75
2022/11/05 05:15:05;;;;;;;1.67;1.50;;;11.90;96.40;;;12.38;66.47;98616.81;4970210;28;113997;-76
2022/11/05 05:17:31;;;;;;;1.70;1.33;;;11.90;96.40;;;12.40;66.30;98615.66;4956279;28;113934;-76
2022/11/05 05:22:43;;;;;;;1.10;1.00;;;11.90;96.30;;;12.36;66.40;98619.09;4969923;28;124333;-76
2022/11/05 05:25:09;;;;;;;1.97;1.40;;;12.00;96.30;;;12.36;66.23;98624.63;4955445;28;113526;-76
2022/11/05 05:27:35;;;;;;;2.17;1.60;;;12.00;96.30;;;12.37;66.30;98620.72;4970196;28;113962;-76
2022/11/05 05:30:02;;;;;;;1.90;1.60;;;11.90;96.30;;;12.37;66.23;98625.44;4959493;28;124059;-76
2022/11/05 05:32:29;;;;;;;1.57;1.47;;;11.90;96.30;;;12.36;66.29;98624.63;4971766;28;124507;-76
2022/11/05 05:34:55;;;;;;;1.93;1.70;;;11.90;96.20;;;12.33;65.90;98628.06;4970700;28;114948;-78
2022/11/05 05:37:22;;;;;;;3.90;2.10;;;12.10;96.30;;;12.33;66.10;98641.09;4971125;28;113954;-76
2022/11/05 05:39:48;;;;;;;2.30;1.80;;;11.90;96.20;;;12.28;65.89;98636.56;4969403;28;125116;-76
2022/11/05 05:42:15;;;;;;;2.50;2.30;;;11.80;96.10;;;12.27;65.92;98637.69;4970790;28;123867;-76
2022/11/05 05:44:41;;;;;;;2.93;2.67;;;11.80;96.20;;;12.28;66.38;98642.09;4973962;28;114316;-76
2022/11/05 05:47:08;;;;;;;3.10;2.80;;;11.90;96.20;;;12.29;66.06;98648.44;4970467;28;113825;-76
2022/11/05 05:49:35;;;;;;;4.80;3.17;;;11.80;96.20;;;12.28;66.09;98644.06;4959290;28;124002;-77
2022/11/05 05:52:01;;;;;;;4.07;3.13;;;12.10;96.30;;;12.31;66.38;98658.06;4969653;28;123633;-75
2022/11/05 05:54:28;;;;;;;4.33;2.97;;;11.80;96.20;;;12.33;66.42;98652.16;4971769;28;115255;-76
2022/11/05 05:56:54;;;;;;;4.67;3.70;;;12.00;96.60;;;12.32;66.01;98656.91;4964349;28;116301;-76
2022/11/05 05:59:20;;;;;;;4.30;3.40;;;11.80;96.30;;;12.32;66.20;98659.66;4962148;28;124324;-77
2022/11/05 06:01:47;;;;;;;3.80;3.50;;;11.80;96.30;;;12.33;66.44;98663.25;4973044;28;123948;-77
2022/11/05 06:04:14;;;;;;;6.23;3.70;;;11.80;96.30;;;12.33;65.99;98661.31;4971802;28;112579;-76
2022/11/05 06:06:40;;;;;;;4.80;3.90;;;11.90;96.30;;;12.34;66.07;98662.94;4971958;28;113960;-78
2022/11/05 06:09:07;;;;;;;6.83;4.10;;;11.90;96.30;;;12.34;66.07;98670.44;4972692;28;123932;-76
2022/11/05 06:11:33;;;;;;;6.30;5.00;;;11.90;96.30;;;12.33;66.02;98677.09;4961902;28;124077;-77
2022/11/05 06:14:01;;;;;;;7.40;5.20;;;11.90;96.30;;;12.32;66.31;98681.03;4987117;28;113659;-76
2022/11/05 06:16:27;;;;;;;6.90;5.50;;;11.90;96.30;;;12.31;66.08;98682.19;4987601;28;113063;-76
2022/11/05 06:18:54;;;;;;;7.87;5.53;;;11.90;96.30;;;12.29;66.25;98676.16;4967150;28;123700;-76
2022/11/05 06:21:21;;;;;;;7.83;5.50;;;11.80;96.30;;;12.29;66.29;98690.00;4968451;28;123717;-77
2022/11/05 06:23:48;;;;;;;10.00;7.57;;;11.80;96.30;;;12.28;66.38;98694.72;4969166;28;114798;-77
2022/11/05 06:26:17;;;;;;;10.90;7.63;;;11.80;96.30;;;12.23;66.11;98697.66;4972507;28;113656;-77
2022/11/05 06:28:44;;;;;;;8.70;5.87;;;11.80;96.40;;;12.20;66.17;98690.00;4968074;28;124223;-77
2022/11/05 06:31:13;;;;;;;7.87;6.50;;;11.70;96.30;;;12.18;66.09;98705.31;4966944;28;124343;-78
2022/11/05 06:33:39;;;;;;;9.47;6.57;;;11.70;96.30;;;12.17;66.48;98707.28;4967663;28;114994;-77
2022/11/05 06:36:07;;;;;;;9.57;7.50;;;11.70;96.40;;;12.15;66.66;98715.09;4969710;28;113646;-77
2022/11/05 06:38:35;;;;;;;12.97;7.37;;;11.70;96.40;;;12.14;66.05;98718.97;4970295;28;123382;-76
2022/11/05 06:41:03;;;;;;;12.97;7.77;;;11.70;96.40;;;12.13;66.36;98720.13;4969438;28;123943;-76
2022/11/05 06:43:32;;;;;;;10.40;8.93;;;11.70;96.40;;;12.12;66.26;98715.75;4968170;28;115183;-77
2022/11/05 06:46:01;;;;;;;10.53;8.00;;;11.70;96.40;;;12.11;66.54;98731.50;4966437;28;114324;-76
2022/11/05 06:48:28;;;;;;;11.20;8.20;;;11.70;96.40;;;12.12;66.35;98735.13;4964378;28;124688;-77
2022/11/05 06:50:55;;;;;;;9.37;7.03;;;11.70;96.40;;;12.12;66.67;98741.47;4967449;28;123949;-77
2022/11/05 06:53:21;;;;;;;11.07;8.57;;;11.70;96.40;;;12.13;66.36;98731.22;4963255;28;114429;-77
2022/11/05 06:55:48;;;;;;;10.80;7.17;;;11.70;96.40;;;12.14;66.41;98738.38;4952820;28;114507;-76
2022/11/05 06:58:15;;;;;;;11.70;7.70;;;11.70;96.40;;;12.15;66.30;98742.78;4966470;28;124156;-77
2022/11/05 07:00:41;;;;;;;11.40;7.80;;;11.70;96.40;;;12.16;65.95;98749.94;4961003;28;124220;-77
2022/11/05 07:03:10;;;;;;;12.70;9.57;;;11.80;96.40;;;12.15;66.14;98757.44;4962813;28;114274;-78
2022/11/05 07:05:44;;;;;;;10.43;7.50;;;11.70;96.30;;;12.15;66.29;98756.63;4952601;28;113606;-77
2022/11/05 07:08:11;;;;;;;16.17;9.07;;;11.70;96.30;;;12.13;66.21;98768.03;4965512;28;124106;-77
2022/11/05 07:10:37;;;;;;;10.37;7.83;;;11.70;96.30;;;12.13;66.53;98764.44;4948386;28;123724;-77
2022/11/05 07:13:04;;;;;;;12.03;8.43;;;12.10;96.50;;;12.13;66.10;98772.75;4954453;28;112944;-77
2022/11/05 07:15:31;;;;;;;15.60;8.50;;;11.70;96.40;;;12.12;66.34;98776.66;4968071;28;114033;-77
2022/11/05 07:17:59;;;;;;;11.47;8.90;;;11.70;96.40;;;12.11;66.29;98775.84;4967819;28;124024;-78
2022/11/05 07:20:26;;;;;;;14.27;8.80;;;11.70;96.40;;;12.11;66.20;98777.78;4967975;28;123783;-75
2022/11/05 07:23:05;;;;;;;11.73;8.70;;;11.60;96.30;;;12.10;66.24;98793.59;4968862;28;114385;-79
2022/11/05 07:25:33;;;;;;;18.40;9.93;;;11.80;96.40;;;12.06;66.46;98792.63;4965080;28;113258;-77
2022/11/05 07:28:00;;;;;;;12.67;9.20;;;11.60;96.30;;;12.04;66.01;98799.63;4962589;28;124083;-78
2022/11/05 07:30:28;;;;;;;13.43;8.80;;;12.00;96.50;;;12.03;66.29;98803.50;4955257;28;123852;-77
2022/11/05 07:32:55;;;;;;;13.50;8.80;;;11.60;96.40;;;12.04;66.45;98805.16;4964378;28;115209;-78
2022/11/05 07:35:22;;;;;;;13.43;8.97;;;11.60;96.50;;;12.04;67.02;98805.97;4977623;28;114713;-78
2022/11/05 07:37:52;;;;;;;9.43;7.90;;;11.60;96.70;;;12.07;66.62;98815.59;4970402;28;126017;-78
2022/11/05 07:40:20;;;;;;;11.57;8.40;;;11.60;96.70;;;12.08;66.59;98817.22;4945694;28;123321;-77
2022/11/05 07:42:59;;;;;;;15.40;9.93;;;11.60;96.70;;;12.09;66.69;98807.75;4963617;28;115108;-78
2022/11/05 07:45:28;;;;;;;11.03;8.23;;;11.60;96.60;;;12.07;67.00;98821.13;4957075;28;115115;-79
2022/11/05 07:48:03;;;;;;;11.80;7.80;;;11.60;96.60;;;12.09;66.77;98818.84;4996729;28;123916;-78
2022/11/05 07:50:36;;;;;;;12.47;8.50;;;11.60;96.60;;;12.10;66.41;98817.72;4970168;28;123516;-79
2022/11/05 07:53:11;;;;;;;13.50;9.27;;;11.60;96.60;;;12.08;66.39;98825.53;4968519;28;114267;-77
2022/11/05 07:55:40;;;;;;;10.77;8.23;;;11.60;96.50;;;12.06;66.57;98828.63;4950056;28;114485;-80
2022/11/05 07:58:06;;;;;;;14.87;9.80;;;11.60;96.50;;;12.08;66.74;98842.13;4964078;28;123111;-77
2022/11/05 08:00:33;;;;;;;12.07;8.50;;;11.60;96.50;;;12.09;66.32;98841.81;4963733;28;124607;-78
2022/11/05 08:03:14;;;;;;;11.50;8.57;;;11.60;96.50;;;12.11;66.23;98849.81;4967956;28;115323;-77
2022/11/05 08:05:45;;;;;;;10.87;7.97;;;13.10;97.20;;;12.08;66.41;98842.13;4969325;28;114159;-76
2022/11/05 08:08:16;;;;;;;11.10;7.43;;;11.60;96.50;;;12.06;66.32;98852.72;4966530;28;124482;-77
2022/11/05 08:10:43;;;;;;;11.80;9.10;;;11.60;96.50;;;12.03;66.49;98853.34;4968555;28;124402;-77
2022/11/05 08:13:11;;;;;;;12.47;8.30;;;11.70;96.50;;;11.93;66.21;98855.28;4948843;28;112603;-77
2022/11/05 08:15:39;;;;;;;14.00;8.87;;;11.50;96.40;;;11.85;66.94;98856.03;4973451;28;114086;-76
2022/11/05 08:18:11;;;;;;;10.40;7.20;;;11.50;96.40;;;11.80;66.79;98863.69;4988516;28;124371;-76
2022/11/05 08:20:38;;;;;;;8.80;6.67;;;11.40;96.40;;;11.72;66.85;98859.72;4970027;28;123611;-77
2022/11/05 08:23:05;;;;;;;8.10;5.80;;;11.40;96.50;;;11.66;66.77;98860.97;4959179;28;115807;-76
2022/11/05 08:25:31;;;;;;;6.50;5.10;;;11.70;96.60;;;11.61;66.69;98863.91;4952345;28;114899;-76
2022/11/05 08:28:12;;;;;;;4.43;4.03;;;11.20;96.40;;;11.59;66.93;98868.94;4970141;28;124041;-78
2022/11/05 08:30:39;;;;;;;5.70;4.17;;;11.20;96.50;;;11.54;66.75;98872.66;4962435;28;124597;-79
2022/11/05 08:33:10;;;;;;;5.77;4.80;;;11.20;96.50;;;11.51;66.77;98881.59;4961147;28;114323;-81
2022/11/05 08:35:37;;;;;;;5.43;4.07;;;11.20;96.40;;;11.48;66.55;98885.00;4963341;28;114457;-79
2022/11/05 08:38:22;;;;;;;5.70;4.10;;;11.10;96.40;;;11.42;66.74;98881.56;4972839;28;123294;-79
2022/11/05 08:40:56;;;;;;;3.30;2.93;;;11.00;96.20;;;11.38;66.52;98888.81;4970402;28;123883;-79
2022/11/05 08:43:23;;;;;;;4.73;2.80;;;11.00;96.30;;;11.35;66.66;98883.94;4964190;28;114528;-80
2022/11/05 08:45:53;;;;;;;5.67;3.13;;;11.00;96.30;;;11.36;66.47;98895.81;4962505;28;114559;-78
2022/11/05 08:48:20;;;;;;;5.03;3.70;;;11.00;96.30;;;11.34;67.00;98882.31;4981140;28;125261;-79
2022/11/05 08:50:48;;;;;;;3.43;3.07;;;10.10;95.90;;;11.34;66.79;98898.91;4982617;28;123640;-76
2022/11/05 08:53:15;;;;;;;3.50;2.80;;;11.00;96.30;;;11.35;66.77;98892.22;4961930;28;115008;-78
2022/11/05 08:55:43;;;;;;;3.47;2.70;;;11.00;96.30;;;11.35;66.74;98889.47;4968376;28;114052;-77
2022/11/05 08:58:14;;;;;;;5.13;3.17;;;10.90;96.30;;;11.34;66.71;98904.44;4959830;28;124172;-84
2022/11/05 09:00:41;;;;;;;4.03;3.00;;;10.90;96.30;;;11.36;67.03;98891.09;4957045;28;123823;-77
2022/11/05 09:03:09;;;;;;;3.47;2.70;;;10.90;96.40;;;11.38;66.56;98902.66;4950836;28;114276;-77
2022/11/05 09:05:38;;;;;;;4.73;2.87;;;11.00;96.50;;;11.37;66.79;98909.34;4960617;28;113721;-77
2022/11/05 09:08:11;;;;;;;3.93;3.03;;;10.90;96.50;;;11.34;66.60;98915.50;4970241;28;124724;-77
2022/11/05 09:10:38;;;;;;;4.53;3.27;;;10.90;96.50;;;11.30;66.81;98910.91;4998794;28;123608;-77
2022/11/05 09:13:05;;;;;;;4.53;3.60;;;10.90;96.50;;;11.29;67.08;98912.88;4983334;28;114288;-77
2022/11/05 09:15:34;;;;;;;3.60;2.90;;;10.90;96.50;;;11.28;66.76;98912.06;4970556;28;114915;-77
2022/11/05 09:18:04;;;;;;;4.90;3.27;;;10.90;96.50;;;11.27;67.41;98909.59;4969445;28;124266;-77
2022/11/05 09:20:32;;;;;;;8.40;3.20;;;11.00;96.60;;;11.27;67.47;98915.94;4969846;28;123794;-78
2022/11/05 09:22:58;;;;;;;5.07;2.97;;;10.90;96.50;;;11.28;67.01;98927.81;4962537;28;114103;-76
2022/11/05 09:25:25;;;;;;;4.80;3.30;;;11.90;97.00;;;11.28;67.30;98928.66;4968640;28;113771;-78
2022/11/05 09:27:52;;;;;;;5.60;3.27;;;10.90;96.60;;;11.27;67.47;98921.47;4971398;28;123883;-77
2022/11/05 09:30:19;;;;;;;4.43;3.33;;;10.90;96.60;;;11.28;67.30;98927.81;4970275;28;123896;-80
2022/11/05 09:32:46;;;;;;;4.53;3.20;;;10.90;96.60;;;11.25;67.36;98925.66;4958664;28;114261;-78
2022/11/05 09:35:12;;;;;;;6.27;3.53;;;10.90;96.60;;;11.26;67.25;98935.63;4949550;28;113907;-78
2022/11/05 09:37:39;;;;;;;5.63;3.40;;;10.90;96.60;;;11.27;67.14;98942.78;4966903;28;124490;-78
2022/11/05 09:40:06;;;;;;;5.07;4.10;;;10.90;96.60;;;11.27;67.03;98926.19;4965284;28;123935;-77
2022/11/05 09:42:40;;;;;;;5.40;3.70;;;10.90;96.60;;;11.25;66.86;98934.78;4973755;28;114442;-78
2022/11/05 09:45:16;;;;;;;5.00;3.83;;;10.90;96.60;;;11.25;66.83;98945.03;4988194;28;112225;-77
2022/11/05 09:48:07;;;;;;;9.13;4.97;;;10.80;96.50;;;11.23;66.92;98930.69;4982254;28;123988;-76
2022/11/05 09:50:43;;;;;;;8.97;4.77;;;10.80;96.50;;;11.23;67.13;98933.47;4972306;28;124476;-78
2022/11/05 09:53:16;;;;;;;7.37;5.53;;;10.80;96.60;;;11.22;67.28;98931.84;4970109;28;114249;-78
2022/11/05 09:55:49;;;;;;;6.97;5.20;;;10.80;96.60;;;11.23;67.25;98941.75;4963623;28;113943;-78
2022/11/05 09:58:40;;;;;;;9.40;5.97;;;10.80;96.60;;;11.24;67.18;98943.41;4961767;28;124164;-79
2022/11/05 10:01:18;;;;;;;12.07;6.00;;;10.80;96.70;;;11.23;67.42;98958.34;4987627;28;123979;-79
2022/11/05 10:03:48;;;;;;;8.93;5.60;;;10.80;96.70;;;11.25;67.28;98950.56;4960990;28;114030;-77
2022/11/05 10:06:24;;;;;;;10.13;6.27;;;10.90;96.80;;;11.29;67.76;98951.59;4963622;28;114600;-85
2022/11/05 10:09:06;;;;;;;12.93;6.40;;;10.90;96.80;;;11.30;67.52;98953.22;4976855;28;122850;-77
2022/11/05 10:11:45;;;;;;;9.27;6.40;;;10.90;96.80;;;11.32;67.62;98962.03;4965893;28;124100;-77
2022/11/05 10:14:26;;;;;;;8.10;5.90;;;10.90;96.90;;;11.36;67.20;98968.53;4981782;28;113899;-77
2022/11/05 10:17:24;;;;;;;9.40;6.67;;;10.90;96.80;;;11.39;67.40;98973.47;4991549;28;114078;-77
2022/11/05 10:20:22;;;;;;;9.47;5.63;;;10.90;96.80;;;11.41;67.32;98976.72;4966447;28;123812;-77
2022/11/05 10:22:59;;;;;;;8.53;6.43;;;11.00;96.80;;;11.45;66.96;98985.22;4973072;28;124897;-77
2022/11/05 10:25:35;;;;;;;12.27;5.70;;;11.00;96.70;;;11.45;67.01;98985.22;4966470;28;113881;-77
2022/11/05 10:28:04;;;;;;;8.37;6.17;;;11.00;96.70;;;11.46;66.96;98987.66;4999368;28;113935;-78
2022/11/05 10:30:31;;;;;;;8.03;5.77;;;11.00;96.70;;;11.46;66.64;98984.91;4966901;28;124155;-77
2022/11/05 10:33:03;;;;;;;10.03;7.00;;;11.00;96.60;;;11.48;66.54;98990.94;5002695;28;123234;-77
2022/11/05 10:35:34;;;;;;;8.57;6.63;;;11.00;96.60;;;11.50;66.66;98990.66;4968948;28;113960;-77
2022/11/05 10:38:01;;;;;;;7.80;5.87;;;11.00;96.50;;;11.48;66.53;98988.19;4985912;28;112800;-77
2022/11/05 10:40:56;;;;;;;8.47;5.80;;;11.20;96.50;;;11.46;66.04;98990.44;4970678;28;123974;-77
2022/11/05 10:43:46;;;;;;;9.00;6.57;;;11.00;96.30;;;11.45;66.44;98988.00;4967328;28;123597;-76
2022/11/05 10:46:27;;;;;;;10.17;6.20;;;11.00;96.30;;;11.45;66.31;98980.50;4961654;28;114296;-77
2022/11/05 10:49:05;;;;;;;9.10;5.10;;;11.00;96.40;;;11.50;66.63;98982.34;4968474;28;114229;-76
2022/11/05 10:51:32;;;;;;;8.23;5.70;;;11.00;96.70;;;11.55;66.48;98986.91;4968673;28;124226;-77
2022/11/05 10:54:17;;;;;;;13.03;5.97;;;11.10;96.40;;;11.62;65.96;98993.66;4971626;28;123701;-77
2022/11/05 10:56:44;;;;;;;9.57;6.00;;;11.10;96.40;;;11.63;65.96;98983.38;4975352;28;114522;-77
2022/11/05 10:59:28;;;;;;;8.73;5.10;;;11.10;96.40;;;11.67;65.95;98988.00;4971841;28;114197;-77
2022/11/05 11:02:13;;;;;;;8.67;5.50;;;11.20;96.50;;;11.71;65.99;98991.78;4969943;28;123769;-77
2022/11/05 11:04:41;;;;;;;9.30;5.63;;;11.20;96.40;;;11.75;65.88;98989.19;4968541;28;123378;-78
2022/11/05 11:07:21;;;;;;;11.30;6.10;;;11.20;96.40;;;11.82;66.09;98992.34;4971771;28;115002;-83
2022/11/05 11:09:49;;;;;;;9.00;6.13;;;11.30;96.40;;;11.85;65.84;98994.47;4958849;28;113199;-76
2022/11/05 11:12:23;;;;;;;9.43;5.47;;;11.40;96.40;;;11.90;65.85;98994.38;4970721;28;124725;-77
2022/11/05 11:15:28;;;;;;;8.53;5.80;;;11.60;96.40;;;11.95;65.80;98993.41;4973882;28;124368;-78